sensor_id;sensor_type;location;lat;lon;timestamp;P1;durP1;ratioP1;P2;durP2;ratioP2
48268;SDS011;34088;52.232;5.196;2022-09-09T00:03:47;3.53;;;1.85;;
48268;SDS011;34088;52.232;5.196;2022-09-09T00:06:42;4.15;;;2.00;;
48268;SDS011;34088;52.232;5.196;2022-09-09T00:09:25;6.18;;;1.80;;
48268;SDS011;34088;52.232;5.196;2022-09-09T00:14:48;4.82;;;1.80;;
48268;SDS011;34088;52.232;5.196;2022-09-09T00:17:26;4.03;;;1.83;;
48268;SDS011;34088;52.232;5.196;2022-09-09T00:20:16;2.92;;;1.70;;
48268;SDS011;34088;52.232;5.196;2022-09-09T00:25:22;3.88;;;1.90;;
48268;SDS011;34088;52.232;5.196;2022-09-09T00:27:59;4.63;;;2.05;;
48268;SDS011;34088;52.232;5.196;2022-09-09T00:30:26;7.25;;;2.20;;
48268;SDS011;34088;52.232;5.196;2022-09-09T00:32:55;5.10;;;2.00;;
48268;SDS011;34088;52.232;5.196;2022-09-09T00:35:37;4.68;;;2.33;;
48268;SDS011;34088;52.232;5.196;2022-09-09T00:38:12;4.03;;;2.40;;
48268;SDS011;34088;52.232;5.196;2022-09-09T00:41:03;5.97;;;2.40;;
48268;SDS011;34088;52.232;5.196;2022-09-09T00:43:32;2.67;;;1.88;;
48268;SDS011;34088;52.232;5.196;2022-09-09T00:49:04;5.45;;;2.45;;
48268;SDS011;34088;52.232;5.196;2022-09-09T00:52:12;4.83;;;2.80;;
48268;SDS011;34088;52.232;5.196;2022-09-09T01:00:24;5.78;;;2.63;;
48268;SDS011;34088;52.232;5.196;2022-09-09T01:03:02;5.30;;;2.65;;
48268;SDS011;34088;52.232;5.196;2022-09-09T01:05:39;5.68;;;3.00;;
48268;SDS011;34088;52.232;5.196;2022-09-09T01:11:01;5.65;;;3.35;;
48268;SDS011;34088;52.232;5.196;2022-09-09T01:13:29;6.80;;;3.30;;
48268;SDS011;34088;52.232;5.196;2022-09-09T01:15:58;5.60;;;3.40;;
48268;SDS011;34088;52.232;5.196;2022-09-09T01:18:49;5.28;;;3.50;;
48268;SDS011;34088;52.232;5.196;2022-09-09T01:26:42;5.43;;;3.70;;
48268;SDS011;34088;52.232;5.196;2022-09-09T01:29:11;6.28;;;3.85;;
48268;SDS011;34088;52.232;5.196;2022-09-09T01:31:40;6.03;;;3.63;;
48268;SDS011;34088;52.232;5.196;2022-09-09T01:34:11;5.20;;;3.65;;
48268;SDS011;34088;52.232;5.196;2022-09-09T01:36:49;7.93;;;3.65;;
48268;SDS011;34088;52.232;5.196;2022-09-09T01:39:29;8.65;;;3.90;;
48268;SDS011;34088;52.232;5.196;2022-09-09T01:41:55;9.10;;;4.50;;
48268;SDS011;34088;52.232;5.196;2022-09-09T01:44:22;7.90;;;3.80;;
48268;SDS011;34088;52.232;5.196;2022-09-09T01:46:48;6.20;;;4.20;;
48268;SDS011;34088;52.232;5.196;2022-09-09T01:49:14;5.93;;;3.88;;
48268;SDS011;34088;52.232;5.196;2022-09-09T01:51:42;7.10;;;3.95;;
48268;SDS011;34088;52.232;5.196;2022-09-09T01:54:09;8.48;;;4.40;;
48268;SDS011;34088;52.232;5.196;2022-09-09T01:59:09;8.10;;;4.60;;
48268;SDS011;34088;52.232;5.196;2022-09-09T02:04:27;9.40;;;4.97;;
48268;SDS011;34088;52.232;5.196;2022-09-09T02:07:04;7.80;;;4.90;;
48268;SDS011;34088;52.232;5.196;2022-09-09T02:09:40;8.18;;;5.10;;
48268;SDS011;34088;52.232;5.196;2022-09-09T02:12:11;8.95;;;5.30;;
48268;SDS011;34088;52.232;5.196;2022-09-09T02:14:41;8.63;;;5.15;;
48268;SDS011;34088;52.232;5.196;2022-09-09T02:17:13;8.43;;;5.10;;
48268;SDS011;34088;52.232;5.196;2022-09-09T02:19:47;8.35;;;5.18;;
48268;SDS011;34088;52.232;5.196;2022-09-09T02:22:20;7.63;;;5.03;;
48268;SDS011;34088;52.232;5.196;2022-09-09T02:24:48;8.73;;;5.28;;
48268;SDS011;34088;52.232;5.196;2022-09-09T02:27:17;10.70;;;6.10;;
48268;SDS011;34088;52.232;5.196;2022-09-09T02:29:44;7.95;;;5.35;;
48268;SDS011;34088;52.232;5.196;2022-09-09T02:32:13;9.80;;;6.28;;
48268;SDS011;34088;52.232;5.196;2022-09-09T02:34:43;10.80;;;6.30;;
48268;SDS011;34088;52.232;5.196;2022-09-09T02:37:10;9.32;;;5.57;;
48268;SDS011;34088;52.232;5.196;2022-09-09T02:39:37;8.30;;;5.95;;
48268;SDS011;34088;52.232;5.196;2022-09-09T02:42:03;10.18;;;6.25;;
48268;SDS011;34088;52.232;5.196;2022-09-09T02:44:29;11.25;;;6.38;;
48268;SDS011;34088;52.232;5.196;2022-09-09T02:47:16;11.95;;;8.35;;
48268;SDS011;34088;52.232;5.196;2022-09-09T02:58:13;9.25;;;6.32;;
48268;SDS011;34088;52.232;5.196;2022-09-09T03:00:48;9.98;;;6.45;;
48268;SDS011;34088;52.232;5.196;2022-09-09T03:03:15;9.77;;;6.00;;
48268;SDS011;34088;52.232;5.196;2022-09-09T03:05:42;8.20;;;6.55;;
48268;SDS011;34088;52.232;5.196;2022-09-09T03:08:09;10.02;;;6.25;;
48268;SDS011;34088;52.232;5.196;2022-09-09T03:10:36;10.18;;;6.13;;
48268;SDS011;34088;52.232;5.196;2022-09-09T03:13:02;11.07;;;6.20;;
48268;SDS011;34088;52.232;5.196;2022-09-09T03:15:32;9.27;;;6.13;;
48268;SDS011;34088;52.232;5.196;2022-09-09T03:17:58;10.75;;;6.05;;
48268;SDS011;34088;52.232;5.196;2022-09-09T03:20:25;11.27;;;6.68;;
48268;SDS011;34088;52.232;5.196;2022-09-09T03:22:55;10.90;;;6.00;;
48268;SDS011;34088;52.232;5.196;2022-09-09T03:25:22;9.30;;;6.15;;
48268;SDS011;34088;52.232;5.196;2022-09-09T03:27:49;10.07;;;6.70;;
48268;SDS011;34088;52.232;5.196;2022-09-09T03:30:15;8.20;;;5.85;;
48268;SDS011;34088;52.232;5.196;2022-09-09T03:32:41;9.70;;;5.95;;
48268;SDS011;34088;52.232;5.196;2022-09-09T03:35:07;7.85;;;5.88;;
48268;SDS011;34088;52.232;5.196;2022-09-09T03:37:34;9.20;;;6.07;;
48268;SDS011;34088;52.232;5.196;2022-09-09T03:40:00;9.85;;;6.25;;
48268;SDS011;34088;52.232;5.196;2022-09-09T03:42:26;9.27;;;6.05;;
48268;SDS011;34088;52.232;5.196;2022-09-09T03:44:52;9.32;;;6.57;;
48268;SDS011;34088;52.232;5.196;2022-09-09T03:47:20;8.80;;;6.30;;
48268;SDS011;34088;52.232;5.196;2022-09-09T03:49:49;9.35;;;5.72;;
48268;SDS011;34088;52.232;5.196;2022-09-09T03:52:15;9.77;;;6.50;;
48268;SDS011;34088;52.232;5.196;2022-09-09T03:54:41;12.40;;;6.38;;
48268;SDS011;34088;52.232;5.196;2022-09-09T03:57:08;10.30;;;6.43;;
48268;SDS011;34088;52.232;5.196;2022-09-09T03:59:35;10.70;;;6.30;;
48268;SDS011;34088;52.232;5.196;2022-09-09T04:02:01;12.07;;;6.72;;
48268;SDS011;34088;52.232;5.196;2022-09-09T04:04:27;9.65;;;6.32;;
48268;SDS011;34088;52.232;5.196;2022-09-09T04:06:54;9.13;;;6.07;;
48268;SDS011;34088;52.232;5.196;2022-09-09T04:09:20;9.15;;;6.28;;
48268;SDS011;34088;52.232;5.196;2022-09-09T04:11:46;8.77;;;5.68;;
48268;SDS011;34088;52.232;5.196;2022-09-09T04:14:12;7.63;;;5.53;;
48268;SDS011;34088;52.232;5.196;2022-09-09T04:16:38;12.80;;;5.90;;
48268;SDS011;34088;52.232;5.196;2022-09-09T04:19:08;11.50;;;6.32;;
48268;SDS011;34088;52.232;5.196;2022-09-09T04:21:34;12.02;;;6.10;;
48268;SDS011;34088;52.232;5.196;2022-09-09T04:24:00;11.23;;;5.90;;
48268;SDS011;34088;52.232;5.196;2022-09-09T04:26:26;9.30;;;5.70;;
48268;SDS011;34088;52.232;5.196;2022-09-09T04:28:52;8.55;;;5.32;;
48268;SDS011;34088;52.232;5.196;2022-09-09T04:31:19;8.80;;;5.63;;
48268;SDS011;34088;52.232;5.196;2022-09-09T04:33:48;8.82;;;5.82;;
48268;SDS011;34088;52.232;5.196;2022-09-09T04:36:14;9.40;;;6.00;;
48268;SDS011;34088;52.232;5.196;2022-09-09T04:38:41;9.20;;;5.57;;
48268;SDS011;34088;52.232;5.196;2022-09-09T04:41:09;11.90;;;5.65;;
48268;SDS011;34088;52.232;5.196;2022-09-09T04:43:36;9.05;;;5.68;;
48268;SDS011;34088;52.232;5.196;2022-09-09T04:46:02;9.55;;;5.85;;
48268;SDS011;34088;52.232;5.196;2022-09-09T04:48:29;10.38;;;6.05;;
48268;SDS011;34088;52.232;5.196;2022-09-09T04:51:00;11.55;;;5.80;;
48268;SDS011;34088;52.232;5.196;2022-09-09T04:53:28;8.07;;;5.25;;
48268;SDS011;34088;52.232;5.196;2022-09-09T04:56:05;9.75;;;4.75;;
48268;SDS011;34088;52.232;5.196;2022-09-09T04:58:32;9.82;;;5.18;;
48268;SDS011;34088;52.232;5.196;2022-09-09T05:01:02;10.18;;;5.00;;
48268;SDS011;34088;52.232;5.196;2022-09-09T05:03:29;10.35;;;5.75;;
48268;SDS011;34088;52.232;5.196;2022-09-09T05:06:02;9.57;;;5.20;;
48268;SDS011;34088;52.232;5.196;2022-09-09T05:08:29;8.70;;;5.10;;
48268;SDS011;34088;52.232;5.196;2022-09-09T05:10:55;9.00;;;5.18;;
48268;SDS011;34088;52.232;5.196;2022-09-09T05:13:21;12.05;;;5.57;;
48268;SDS011;34088;52.232;5.196;2022-09-09T05:15:51;8.93;;;4.90;;
48268;SDS011;34088;52.232;5.196;2022-09-09T05:18:18;7.88;;;4.85;;
48268;SDS011;34088;52.232;5.196;2022-09-09T05:20:44;9.45;;;4.85;;
48268;SDS011;34088;52.232;5.196;2022-09-09T05:23:10;9.05;;;5.00;;
48268;SDS011;34088;52.232;5.196;2022-09-09T05:25:38;10.90;;;5.18;;
48268;SDS011;34088;52.232;5.196;2022-09-09T05:28:06;9.30;;;5.30;;
48268;SDS011;34088;52.232;5.196;2022-09-09T05:30:32;8.55;;;5.05;;
48268;SDS011;34088;52.232;5.196;2022-09-09T05:32:59;11.50;;;5.22;;
48268;SDS011;34088;52.232;5.196;2022-09-09T05:35:25;7.22;;;4.32;;
48268;SDS011;34088;52.232;5.196;2022-09-09T05:37:51;10.57;;;5.05;;
48268;SDS011;34088;52.232;5.196;2022-09-09T05:40:17;10.57;;;4.72;;
48268;SDS011;34088;52.232;5.196;2022-09-09T05:42:43;8.88;;;4.97;;
48268;SDS011;34088;52.232;5.196;2022-09-09T05:45:09;9.57;;;5.07;;
48268;SDS011;34088;52.232;5.196;2022-09-09T05:47:35;8.88;;;4.75;;
48268;SDS011;34088;52.232;5.196;2022-09-09T05:50:02;14.65;;;4.70;;
48268;SDS011;34088;52.232;5.196;2022-09-09T05:52:29;11.35;;;4.95;;
48268;SDS011;34088;52.232;5.196;2022-09-09T05:54:55;15.88;;;5.15;;
48268;SDS011;34088;52.232;5.196;2022-09-09T05:57:22;10.68;;;4.75;;
48268;SDS011;34088;52.232;5.196;2022-09-09T05:59:48;12.57;;;4.80;;
48268;SDS011;34088;52.232;5.196;2022-09-09T06:02:14;9.90;;;5.03;;
48268;SDS011;34088;52.232;5.196;2022-09-09T06:04:41;11.60;;;4.78;;
48268;SDS011;34088;52.232;5.196;2022-09-09T06:07:07;10.00;;;4.70;;
48268;SDS011;34088;52.232;5.196;2022-09-09T06:09:33;9.80;;;4.90;;
48268;SDS011;34088;52.232;5.196;2022-09-09T06:11:59;11.18;;;4.47;;
48268;SDS011;34088;52.232;5.196;2022-09-09T06:14:25;12.07;;;5.22;;
48268;SDS011;34088;52.232;5.196;2022-09-09T06:16:52;10.38;;;4.55;;
48268;SDS011;34088;52.232;5.196;2022-09-09T06:19:18;11.23;;;4.57;;
48268;SDS011;34088;52.232;5.196;2022-09-09T06:21:45;9.93;;;4.28;;
48268;SDS011;34088;52.232;5.196;2022-09-09T06:24:12;10.82;;;4.35;;
48268;SDS011;34088;52.232;5.196;2022-09-09T06:26:42;14.45;;;5.07;;
48268;SDS011;34088;52.232;5.196;2022-09-09T06:29:08;9.90;;;4.55;;
48268;SDS011;34088;52.232;5.196;2022-09-09T06:31:35;9.85;;;4.20;;
48268;SDS011;34088;52.232;5.196;2022-09-09T06:34:03;11.38;;;4.20;;
48268;SDS011;34088;52.232;5.196;2022-09-09T06:36:32;7.90;;;3.90;;
48268;SDS011;34088;52.232;5.196;2022-09-09T06:38:59;10.90;;;3.95;;
48268;SDS011;34088;52.232;5.196;2022-09-09T06:41:27;13.38;;;4.00;;
48268;SDS011;34088;52.232;5.196;2022-09-09T06:43:54;10.07;;;3.70;;
48268;SDS011;34088;52.232;5.196;2022-09-09T06:46:24;10.57;;;3.88;;
48268;SDS011;34088;52.232;5.196;2022-09-09T07:02:41;11.73;;;3.72;;
48268;SDS011;34088;52.232;5.196;2022-09-09T07:05:08;11.32;;;3.38;;
48268;SDS011;34088;52.232;5.196;2022-09-09T07:07:34;9.68;;;3.55;;
48268;SDS011;34088;52.232;5.196;2022-09-09T07:10:00;14.77;;;3.65;;
48268;SDS011;34088;52.232;5.196;2022-09-09T07:12:26;13.50;;;3.80;;
48268;SDS011;34088;52.232;5.196;2022-09-09T07:14:52;17.20;;;3.60;;
48268;SDS011;34088;52.232;5.196;2022-09-09T07:17:18;9.20;;;2.92;;
48268;SDS011;34088;52.232;5.196;2022-09-09T07:19:44;11.40;;;3.53;;
48268;SDS011;34088;52.232;5.196;2022-09-09T07:22:10;13.82;;;3.50;;
48268;SDS011;34088;52.232;5.196;2022-09-09T07:24:36;10.93;;;3.38;;
48268;SDS011;34088;52.232;5.196;2022-09-09T07:27:02;10.65;;;3.95;;
48268;SDS011;34088;52.232;5.196;2022-09-09T07:29:29;16.58;;;3.53;;
48268;SDS011;34088;52.232;5.196;2022-09-09T07:31:55;8.80;;;3.20;;
48268;SDS011;34088;52.232;5.196;2022-09-09T07:34:21;10.27;;;3.55;;
48268;SDS011;34088;52.232;5.196;2022-09-09T07:36:47;9.82;;;3.17;;
48268;SDS011;34088;52.232;5.196;2022-09-09T07:39:13;8.88;;;3.58;;
48268;SDS011;34088;52.232;5.196;2022-09-09T07:41:41;11.90;;;3.28;;
48268;SDS011;34088;52.232;5.196;2022-09-09T07:44:15;10.30;;;3.92;;
48268;SDS011;34088;52.232;5.196;2022-09-09T07:46:43;12.25;;;3.65;;
48268;SDS011;34088;52.232;5.196;2022-09-09T07:49:11;9.65;;;3.60;;
48268;SDS011;34088;52.232;5.196;2022-09-09T07:51:39;11.90;;;3.60;;
48268;SDS011;34088;52.232;5.196;2022-09-09T07:54:07;10.35;;;3.45;;
48268;SDS011;34088;52.232;5.196;2022-09-09T07:56:35;12.00;;;3.53;;
48268;SDS011;34088;52.232;5.196;2022-09-09T07:59:02;9.13;;;3.08;;
48268;SDS011;34088;52.232;5.196;2022-09-09T08:01:38;10.27;;;3.50;;
48268;SDS011;34088;52.232;5.196;2022-09-09T08:04:07;9.98;;;3.25;;
48268;SDS011;34088;52.232;5.196;2022-09-09T08:06:35;10.27;;;3.05;;
48268;SDS011;34088;52.232;5.196;2022-09-09T08:09:06;11.85;;;3.75;;
48268;SDS011;34088;52.232;5.196;2022-09-09T08:11:32;10.07;;;3.47;;
48268;SDS011;34088;52.232;5.196;2022-09-09T08:13:59;8.73;;;3.28;;
48268;SDS011;34088;52.232;5.196;2022-09-09T08:16:26;11.85;;;3.30;;
48268;SDS011;34088;52.232;5.196;2022-09-09T08:18:57;14.50;;;3.63;;
48268;SDS011;34088;52.232;5.196;2022-09-09T08:21:24;7.80;;;2.92;;
48268;SDS011;34088;52.232;5.196;2022-09-09T08:23:55;11.77;;;3.35;;
48268;SDS011;34088;52.232;5.196;2022-09-09T08:26:23;8.50;;;2.97;;
48268;SDS011;34088;52.232;5.196;2022-09-09T08:28:52;9.50;;;2.92;;
48268;SDS011;34088;52.232;5.196;2022-09-09T08:31:20;10.27;;;3.05;;
48268;SDS011;34088;52.232;5.196;2022-09-09T08:33:54;10.68;;;3.10;;
48268;SDS011;34088;52.232;5.196;2022-09-09T08:36:21;9.02;;;2.97;;
48268;SDS011;34088;52.232;5.196;2022-09-09T08:38:49;10.80;;;2.60;;
48268;SDS011;34088;52.232;5.196;2022-09-09T08:41:35;9.60;;;2.53;;
48268;SDS011;34088;52.232;5.196;2022-09-09T08:52:13;10.18;;;2.75;;
48268;SDS011;34088;52.232;5.196;2022-09-09T08:55:12;9.60;;;2.70;;
48268;SDS011;34088;52.232;5.196;2022-09-09T08:57:48;11.18;;;2.53;;
48268;SDS011;34088;52.232;5.196;2022-09-09T09:00:16;13.00;;;2.83;;
48268;SDS011;34088;52.232;5.196;2022-09-09T09:02:46;11.20;;;2.90;;
48268;SDS011;34088;52.232;5.196;2022-09-09T09:05:42;7.57;;;2.40;;
48268;SDS011;34088;52.232;5.196;2022-09-09T09:08:20;8.82;;;2.88;;
48268;SDS011;34088;52.232;5.196;2022-09-09T09:10:57;10.50;;;3.03;;
48268;SDS011;34088;52.232;5.196;2022-09-09T09:16:03;15.55;;;2.78;;
48268;SDS011;34088;52.232;5.196;2022-09-09T09:18:39;9.35;;;2.78;;
48268;SDS011;34088;52.232;5.196;2022-09-09T09:21:07;7.93;;;2.42;;
48268;SDS011;34088;52.232;5.196;2022-09-09T09:23:42;10.45;;;2.70;;
48268;SDS011;34088;52.232;5.196;2022-09-09T09:26:13;6.88;;;2.53;;
48268;SDS011;34088;52.232;5.196;2022-09-09T09:28:40;8.95;;;2.60;;
48268;SDS011;34088;52.232;5.196;2022-09-09T09:31:07;8.15;;;2.40;;
48268;SDS011;34088;52.232;5.196;2022-09-09T09:36:20;7.72;;;2.63;;
48268;SDS011;34088;52.232;5.196;2022-09-09T09:38:51;9.35;;;2.35;;
48268;SDS011;34088;52.232;5.196;2022-09-09T09:41:34;10.88;;;2.75;;
48268;SDS011;34088;52.232;5.196;2022-09-09T09:44:02;10.02;;;2.63;;
48268;SDS011;34088;52.232;5.196;2022-09-09T09:46:29;13.10;;;2.83;;
48268;SDS011;34088;52.232;5.196;2022-09-09T09:49:08;8.95;;;2.80;;
48268;SDS011;34088;52.232;5.196;2022-09-09T09:51:35;10.98;;;2.78;;
48268;SDS011;34088;52.232;5.196;2022-09-09T09:54:09;11.00;;;2.85;;
48268;SDS011;34088;52.232;5.196;2022-09-09T09:56:49;9.13;;;2.80;;
48268;SDS011;34088;52.232;5.196;2022-09-09T09:59:23;8.25;;;2.67;;
48268;SDS011;34088;52.232;5.196;2022-09-09T10:04:19;8.02;;;2.45;;
48268;SDS011;34088;52.232;5.196;2022-09-09T10:06:48;12.98;;;2.95;;
48268;SDS011;34088;52.232;5.196;2022-09-09T10:19:37;12.10;;;2.90;;
48268;SDS011;34088;52.232;5.196;2022-09-09T10:27:31;8.48;;;2.80;;
48268;SDS011;34088;52.232;5.196;2022-09-09T10:30:24;10.02;;;2.90;;
48268;SDS011;34088;52.232;5.196;2022-09-09T10:33:16;11.68;;;2.90;;
48268;SDS011;34088;52.232;5.196;2022-09-09T10:35:57;10.50;;;3.22;;
48268;SDS011;34088;52.232;5.196;2022-09-09T10:38:47;9.70;;;3.10;;
48268;SDS011;34088;52.232;5.196;2022-09-09T10:43:53;12.25;;;3.70;;
48268;SDS011;34088;52.232;5.196;2022-09-09T10:52:11;9.60;;;2.90;;
48268;SDS011;34088;52.232;5.196;2022-09-09T10:54:56;8.60;;;3.22;;
48268;SDS011;34088;52.232;5.196;2022-09-09T10:57:41;11.45;;;3.20;;
48268;SDS011;34088;52.232;5.196;2022-09-09T11:02:56;9.07;;;3.15;;
48268;SDS011;34088;52.232;5.196;2022-09-09T11:05:31;9.57;;;2.85;;
48268;SDS011;34088;52.232;5.196;2022-09-09T11:08:09;11.02;;;2.90;;
48268;SDS011;34088;52.232;5.196;2022-09-09T11:10:49;11.10;;;3.10;;
48268;SDS011;34088;52.232;5.196;2022-09-09T11:19:16;8.15;;;2.65;;
48268;SDS011;34088;52.232;5.196;2022-09-09T11:24:52;8.68;;;2.70;;
48268;SDS011;34088;52.232;5.196;2022-09-09T11:27:24;11.15;;;2.72;;
48268;SDS011;34088;52.232;5.196;2022-09-09T11:33:02;8.73;;;3.03;;
48268;SDS011;34088;52.232;5.196;2022-09-09T11:40:36;7.85;;;2.45;;
48268;SDS011;34088;52.232;5.196;2022-09-09T11:43:09;6.97;;;2.42;;
48268;SDS011;34088;52.232;5.196;2022-09-09T11:45:40;6.65;;;2.40;;
48268;SDS011;34088;52.232;5.196;2022-09-09T11:51:02;10.90;;;2.67;;
48268;SDS011;34088;52.232;5.196;2022-09-09T11:53:32;7.72;;;2.30;;
48268;SDS011;34088;52.232;5.196;2022-09-09T11:56:00;9.20;;;2.67;;
48268;SDS011;34088;52.232;5.196;2022-09-09T11:58:29;7.68;;;3.15;;
48268;SDS011;34088;52.232;5.196;2022-09-09T12:01:41;7.40;;;2.45;;
48268;SDS011;34088;52.232;5.196;2022-09-09T12:04:10;9.57;;;2.50;;
48268;SDS011;34088;52.232;5.196;2022-09-09T12:06:43;7.07;;;2.20;;
48268;SDS011;34088;52.232;5.196;2022-09-09T12:11:51;5.22;;;2.05;;
48268;SDS011;34088;52.232;5.196;2022-09-09T12:14:42;8.27;;;2.55;;
48268;SDS011;34088;52.232;5.196;2022-09-09T12:17:17;5.57;;;2.53;;
48268;SDS011;34088;52.232;5.196;2022-09-09T12:19:44;7.72;;;2.40;;
48268;SDS011;34088;52.232;5.196;2022-09-09T12:22:15;5.43;;;2.13;;
48268;SDS011;34088;52.232;5.196;2022-09-09T12:25:13;5.75;;;2.40;;
48268;SDS011;34088;52.232;5.196;2022-09-09T12:30:40;5.85;;;2.13;;
48268;SDS011;34088;52.232;5.196;2022-09-09T12:33:36;6.03;;;2.63;;
48268;SDS011;34088;52.232;5.196;2022-09-09T12:36:05;7.07;;;3.10;;
48268;SDS011;34088;52.232;5.196;2022-09-09T12:38:38;7.60;;;2.78;;
48268;SDS011;34088;52.232;5.196;2022-09-09T12:41:06;5.63;;;2.53;;
48268;SDS011;34088;52.232;5.196;2022-09-09T12:43:44;7.93;;;2.88;;
48268;SDS011;34088;52.232;5.196;2022-09-09T12:46:13;7.40;;;2.83;;
48268;SDS011;34088;52.232;5.196;2022-09-09T12:51:28;7.57;;;2.88;;
48268;SDS011;34088;52.232;5.196;2022-09-09T12:53:56;7.97;;;3.55;;
48268;SDS011;34088;52.232;5.196;2022-09-09T12:56:24;7.93;;;2.70;;
48268;SDS011;34088;52.232;5.196;2022-09-09T12:58:52;5.53;;;2.90;;
48268;SDS011;34088;52.232;5.196;2022-09-09T13:01:41;7.63;;;2.65;;
48268;SDS011;34088;52.232;5.196;2022-09-09T13:04:18;6.45;;;3.17;;
48268;SDS011;34088;52.232;5.196;2022-09-09T13:06:47;8.68;;;2.90;;
48268;SDS011;34088;52.232;5.196;2022-09-09T13:09:14;7.85;;;3.00;;
48268;SDS011;34088;52.232;5.196;2022-09-09T13:11:41;7.85;;;2.70;;
48268;SDS011;34088;52.232;5.196;2022-09-09T13:14:24;8.15;;;2.70;;
48268;SDS011;34088;52.232;5.196;2022-09-09T13:16:58;7.97;;;3.15;;
48268;SDS011;34088;52.232;5.196;2022-09-09T13:19:25;6.60;;;2.50;;
48268;SDS011;34088;52.232;5.196;2022-09-09T13:21:54;5.43;;;2.50;;
48268;SDS011;34088;52.232;5.196;2022-09-09T13:24:30;8.05;;;3.10;;
48268;SDS011;34088;52.232;5.196;2022-09-09T13:27:05;5.88;;;2.53;;
48268;SDS011;34088;52.232;5.196;2022-09-09T13:29:51;7.97;;;3.00;;
48268;SDS011;34088;52.232;5.196;2022-09-09T13:32:22;8.60;;;3.08;;
48268;SDS011;34088;52.232;5.196;2022-09-09T13:34:53;8.02;;;3.20;;
48268;SDS011;34088;52.232;5.196;2022-09-09T13:37:28;9.95;;;3.22;;
48268;SDS011;34088;52.232;5.196;2022-09-09T13:39:56;10.52;;;3.33;;
48268;SDS011;34088;52.232;5.196;2022-09-09T13:42:32;7.70;;;2.70;;
48268;SDS011;34088;52.232;5.196;2022-09-09T13:45:02;7.03;;;2.72;;
48268;SDS011;34088;52.232;5.196;2022-09-09T13:47:33;7.15;;;2.70;;
48268;SDS011;34088;52.232;5.196;2022-09-09T13:52:49;5.88;;;2.63;;
48268;SDS011;34088;52.232;5.196;2022-09-09T13:55:21;5.22;;;2.40;;
48268;SDS011;34088;52.232;5.196;2022-09-09T13:57:55;7.97;;;2.83;;
48268;SDS011;34088;52.232;5.196;2022-09-09T14:00:23;8.88;;;2.70;;
48268;SDS011;34088;52.232;5.196;2022-09-09T14:02:49;7.78;;;3.15;;
48268;SDS011;34088;52.232;5.196;2022-09-09T14:05:16;6.95;;;2.67;;
48268;SDS011;34088;52.232;5.196;2022-09-09T14:07:43;6.68;;;2.75;;
48268;SDS011;34088;52.232;5.196;2022-09-09T14:10:10;9.90;;;2.63;;
48268;SDS011;34088;52.232;5.196;2022-09-09T14:12:37;7.65;;;2.63;;
48268;SDS011;34088;52.232;5.196;2022-09-09T14:15:04;7.13;;;2.75;;
48268;SDS011;34088;52.232;5.196;2022-09-09T14:17:31;9.07;;;2.60;;
48268;SDS011;34088;52.232;5.196;2022-09-09T14:19:57;5.47;;;2.45;;
48268;SDS011;34088;52.232;5.196;2022-09-09T14:22:23;6.32;;;2.65;;
48268;SDS011;34088;52.232;5.196;2022-09-09T14:24:50;5.22;;;2.70;;
48268;SDS011;34088;52.232;5.196;2022-09-09T14:27:16;5.55;;;2.75;;
48268;SDS011;34088;52.232;5.196;2022-09-09T14:29:44;6.00;;;2.75;;
48268;SDS011;34088;52.232;5.196;2022-09-09T14:32:10;8.05;;;2.83;;
48268;SDS011;34088;52.232;5.196;2022-09-09T14:34:36;7.32;;;3.08;;
48268;SDS011;34088;52.232;5.196;2022-09-09T14:37:03;7.63;;;3.50;;
48268;SDS011;34088;52.232;5.196;2022-09-09T14:39:29;5.88;;;2.80;;
48268;SDS011;34088;52.232;5.196;2022-09-09T14:41:55;5.95;;;2.90;;
48268;SDS011;34088;52.232;5.196;2022-09-09T14:44:21;7.28;;;3.05;;
48268;SDS011;34088;52.232;5.196;2022-09-09T14:46:47;8.55;;;3.55;;
48268;SDS011;34088;52.232;5.196;2022-09-09T14:49:15;6.30;;;2.88;;
48268;SDS011;34088;52.232;5.196;2022-09-09T14:51:41;6.93;;;3.25;;
48268;SDS011;34088;52.232;5.196;2022-09-09T14:54:07;7.65;;;3.42;;
48268;SDS011;34088;52.232;5.196;2022-09-09T14:56:34;8.07;;;3.47;;
48268;SDS011;34088;52.232;5.196;2022-09-09T14:59:00;6.85;;;3.35;;
48268;SDS011;34088;52.232;5.196;2022-09-09T15:01:27;5.10;;;3.00;;
48268;SDS011;34088;52.232;5.196;2022-09-09T15:03:55;7.78;;;3.30;;
48268;SDS011;34088;52.232;5.196;2022-09-09T15:06:26;7.22;;;2.92;;
48268;SDS011;34088;52.232;5.196;2022-09-09T15:08:54;7.28;;;3.28;;
48268;SDS011;34088;52.232;5.196;2022-09-09T15:11:23;7.05;;;3.17;;
48268;SDS011;34088;52.232;5.196;2022-09-09T15:13:55;6.90;;;3.22;;
48268;SDS011;34088;52.232;5.196;2022-09-09T15:16:23;5.60;;;2.70;;
48268;SDS011;34088;52.232;5.196;2022-09-09T15:18:52;4.43;;;1.83;;
48268;SDS011;34088;52.232;5.196;2022-09-09T15:21:21;3.40;;;1.58;;
48268;SDS011;34088;52.232;5.196;2022-09-09T15:23:48;3.50;;;1.40;;
48268;SDS011;34088;52.232;5.196;2022-09-09T15:26:14;2.83;;;1.20;;
48268;SDS011;34088;52.232;5.196;2022-09-09T15:28:42;3.58;;;1.33;;
48268;SDS011;34088;52.232;5.196;2022-09-09T15:31:18;4.60;;;1.50;;
48268;SDS011;34088;52.232;5.196;2022-09-09T15:33:46;3.42;;;1.58;;
48268;SDS011;34088;52.232;5.196;2022-09-09T15:38:43;3.33;;;1.40;;
48268;SDS011;34088;52.232;5.196;2022-09-09T15:41:10;4.07;;;1.50;;
48268;SDS011;34088;52.232;5.196;2022-09-09T15:43:37;4.70;;;1.77;;
48268;SDS011;34088;52.232;5.196;2022-09-09T15:46:22;4.60;;;1.98;;
48268;SDS011;34088;52.232;5.196;2022-09-09T15:48:52;5.70;;;1.90;;
48268;SDS011;34088;52.232;5.196;2022-09-09T15:51:20;4.70;;;1.77;;
48268;SDS011;34088;52.232;5.196;2022-09-09T15:53:48;5.25;;;1.90;;
48268;SDS011;34088;52.232;5.196;2022-09-09T15:56:19;6.75;;;2.00;;
48268;SDS011;34088;52.232;5.196;2022-09-09T15:58:45;7.15;;;2.22;;
48268;SDS011;34088;52.232;5.196;2022-09-09T16:01:11;7.45;;;2.00;;
48268;SDS011;34088;52.232;5.196;2022-09-09T16:03:42;8.27;;;2.60;;
48268;SDS011;34088;52.232;5.196;2022-09-09T16:06:11;6.88;;;2.25;;
48268;SDS011;34088;52.232;5.196;2022-09-09T16:08:39;5.30;;;1.70;;
48268;SDS011;34088;52.232;5.196;2022-09-09T16:11:07;6.85;;;2.00;;
48268;SDS011;34088;52.232;5.196;2022-09-09T16:13:38;3.85;;;1.83;;
48268;SDS011;34088;52.232;5.196;2022-09-09T16:16:05;3.35;;;1.60;;
48268;SDS011;34088;52.232;5.196;2022-09-09T16:18:32;6.15;;;1.92;;
48268;SDS011;34088;52.232;5.196;2022-09-09T16:21:00;5.63;;;1.67;;
48268;SDS011;34088;52.232;5.196;2022-09-09T16:23:26;5.22;;;1.70;;
48268;SDS011;34088;52.232;5.196;2022-09-09T16:25:55;3.22;;;1.58;;
48268;SDS011;34088;52.232;5.196;2022-09-09T16:28:22;6.43;;;1.80;;
48268;SDS011;34088;52.232;5.196;2022-09-09T16:30:48;6.05;;;2.22;;
48268;SDS011;34088;52.232;5.196;2022-09-09T16:33:14;6.40;;;1.83;;
48268;SDS011;34088;52.232;5.196;2022-09-09T16:35:41;3.25;;;1.52;;
48268;SDS011;34088;52.232;5.196;2022-09-09T16:38:07;5.30;;;1.80;;
48268;SDS011;34088;52.232;5.196;2022-09-09T16:40:37;4.65;;;1.73;;
48268;SDS011;34088;52.232;5.196;2022-09-09T16:43:03;5.68;;;1.73;;
48268;SDS011;34088;52.232;5.196;2022-09-09T16:45:30;5.50;;;1.70;;
48268;SDS011;34088;52.232;5.196;2022-09-09T16:47:57;7.05;;;1.83;;
48268;SDS011;34088;52.232;5.196;2022-09-09T16:50:25;5.28;;;1.70;;
48268;SDS011;34088;52.232;5.196;2022-09-09T16:52:51;6.25;;;1.92;;
48268;SDS011;34088;52.232;5.196;2022-09-09T16:55:18;6.80;;;1.80;;
48268;SDS011;34088;52.232;5.196;2022-09-09T16:57:47;4.28;;;2.00;;
48268;SDS011;34088;52.232;5.196;2022-09-09T17:00:14;7.20;;;1.70;;
48268;SDS011;34088;52.232;5.196;2022-09-09T17:02:43;7.65;;;2.60;;
48268;SDS011;34088;52.232;5.196;2022-09-09T17:05:10;5.85;;;2.30;;
48268;SDS011;34088;52.232;5.196;2022-09-09T17:07:37;7.20;;;2.40;;
48268;SDS011;34088;52.232;5.196;2022-09-09T17:10:03;8.45;;;2.47;;